sensor_id;sensor_type;location;lat;lon;timestamp;temperature;humidity
42227;DHT22;27892;52.378;13.122;2022-07-18T00:01:43;18.80;53.70
42227;DHT22;27892;52.378;13.122;2022-07-18T00:04:09;18.80;54.40
42227;DHT22;27892;52.378;13.122;2022-07-18T00:06:34;18.70;53.60
42227;DHT22;27892;52.378;13.122;2022-07-18T00:09:01;18.70;53.80
42227;DHT22;27892;52.378;13.122;2022-07-18T00:11:26;18.70;54.00
42227;DHT22;27892;52.378;13.122;2022-07-18T00:13:52;18.80;54.20
42227;DHT22;27892;52.378;13.122;2022-07-18T00:16:18;18.80;54.20
42227;DHT22;27892;52.378;13.122;2022-07-18T00:18:44;18.80;54.30
42227;DHT22;27892;52.378;13.122;2022-07-18T00:21:10;18.80;54.50
42227;DHT22;27892;52.378;13.122;2022-07-18T00:23:35;19.00;54.50
42227;DHT22;27892;52.378;13.122;2022-07-18T00:26:01;19.00;54.30
42227;DHT22;27892;52.378;13.122;2022-07-18T00:28:27;19.10;54.30
42227;DHT22;27892;52.378;13.122;2022-07-18T00:30:52;19.10;54.40
42227;DHT22;27892;52.378;13.122;2022-07-18T00:33:18;19.10;54.10
42227;DHT22;27892;52.378;13.122;2022-07-18T00:35:44;19.10;54.20
42227;DHT22;27892;52.378;13.122;2022-07-18T00:38:09;19.20;54.10
42227;DHT22;27892;52.378;13.122;2022-07-18T00:40:35;19.20;54.20
42227;DHT22;27892;52.378;13.122;2022-07-18T00:43:01;19.20;54.40
42227;DHT22;27892;52.378;13.122;2022-07-18T00:45:27;19.20;54.40
42227;DHT22;27892;52.378;13.122;2022-07-18T00:47:52;19.20;54.30
42227;DHT22;27892;52.378;13.122;2022-07-18T00:50:19;19.20;54.30
42227;DHT22;27892;52.378;13.122;2022-07-18T00:52:46;19.10;54.30
42227;DHT22;27892;52.378;13.122;2022-07-18T00:55:12;19.10;54.40
42227;DHT22;27892;52.378;13.122;2022-07-18T00:57:39;19.00;54.40
42227;DHT22;27892;52.378;13.122;2022-07-18T01:00:08;19.00;54.40
42227;DHT22;27892;52.378;13.122;2022-07-18T01:02:53;18.90;54.60
42227;DHT22;27892;52.378;13.122;2022-07-18T01:05:19;18.80;54.70
42227;DHT22;27892;52.378;13.122;2022-07-18T01:07:44;18.80;54.70
42227;DHT22;27892;52.378;13.122;2022-07-18T01:10:10;18.70;55.10
42227;DHT22;27892;52.378;13.122;2022-07-18T01:12:36;18.60;55.20
42227;DHT22;27892;52.378;13.122;2022-07-18T01:15:03;18.60;55.30
42227;DHT22;27892;52.378;13.122;2022-07-18T01:17:29;18.60;55.40
42227;DHT22;27892;52.378;13.122;2022-07-18T01:19:54;18.50;55.60
42227;DHT22;27892;52.378;13.122;2022-07-18T01:22:20;18.50;55.60
42227;DHT22;27892;52.378;13.122;2022-07-18T01:24:46;18.50;55.50
42227;DHT22;27892;52.378;13.122;2022-07-18T01:27:16;18.50;55.70
42227;DHT22;27892;52.378;13.122;2022-07-18T01:29:43;18.40;55.60
42227;DHT22;27892;52.378;13.122;2022-07-18T01:32:10;18.30;55.80
42227;DHT22;27892;52.378;13.122;2022-07-18T01:34:36;18.30;55.90
42227;DHT22;27892;52.378;13.122;2022-07-18T01:37:02;18.30;55.90
42227;DHT22;27892;52.378;13.122;2022-07-18T01:39:28;18.20;56.20
42227;DHT22;27892;52.378;13.122;2022-07-18T01:42:06;18.20;56.10
42227;DHT22;27892;52.378;13.122;2022-07-18T01:44:32;18.20;56.60
42227;DHT22;27892;52.378;13.122;2022-07-18T01:46:58;18.10;56.50
42227;DHT22;27892;52.378;13.122;2022-07-18T01:49:25;18.10;56.50
42227;DHT22;27892;52.378;13.122;2022-07-18T01:51:53;18.10;56.50
42227;DHT22;27892;52.378;13.122;2022-07-18T01:54:23;18.10;56.50
42227;DHT22;27892;52.378;13.122;2022-07-18T01:56:50;18.10;56.60
42227;DHT22;27892;52.378;13.122;2022-07-18T01:59:16;18.00;56.60
42227;DHT22;27892;52.378;13.122;2022-07-18T02:01:44;18.00;56.60
42227;DHT22;27892;52.378;13.122;2022-07-18T02:04:10;18.00;56.70
42227;DHT22;27892;52.378;13.122;2022-07-18T02:06:36;17.90;56.70
42227;DHT22;27892;52.378;13.122;2022-07-18T02:09:02;17.90;56.70
42227;DHT22;27892;52.378;13.122;2022-07-18T02:11:27;17.80;56.70
42227;DHT22;27892;52.378;13.122;2022-07-18T02:14:11;17.80;56.80
42227;DHT22;27892;52.378;13.122;2022-07-18T02:16:37;17.70;56.70
42227;DHT22;27892;52.378;13.122;2022-07-18T02:19:02;17.60;56.60
42227;DHT22;27892;52.378;13.122;2022-07-18T02:21:29;17.60;57.00
42227;DHT22;27892;52.378;13.122;2022-07-18T02:23:54;17.60;57.00
42227;DHT22;27892;52.378;13.122;2022-07-18T02:26:20;17.60;57.00
42227;DHT22;27892;52.378;13.122;2022-07-18T02:28:45;17.50;56.80
42227;DHT22;27892;52.378;13.122;2022-07-18T02:31:11;17.50;56.70
42227;DHT22;27892;52.378;13.122;2022-07-18T02:33:37;17.40;56.90
42227;DHT22;27892;52.378;13.122;2022-07-18T02:36:02;17.40;56.90
42227;DHT22;27892;52.378;13.122;2022-07-18T02:38:28;17.40;56.90
42227;DHT22;27892;52.378;13.122;2022-07-18T02:40:54;17.40;56.80
42227;DHT22;27892;52.378;13.122;2022-07-18T02:43:19;17.40;56.90
42227;DHT22;27892;52.378;13.122;2022-07-18T02:45:45;17.40;56.90
42227;DHT22;27892;52.378;13.122;2022-07-18T02:48:10;17.40;56.90
42227;DHT22;27892;52.378;13.122;2022-07-18T02:50:36;17.30;56.80
42227;DHT22;27892;52.378;13.122;2022-07-18T02:53:02;17.30;56.80
42227;DHT22;27892;52.378;13.122;2022-07-18T02:55:27;17.30;56.90
42227;DHT22;27892;52.378;13.122;2022-07-18T02:57:53;17.20;57.00
42227;DHT22;27892;52.378;13.122;2022-07-18T03:00:19;17.20;57.10
42227;DHT22;27892;52.378;13.122;2022-07-18T03:02:45;17.20;57.10
42227;DHT22;27892;52.378;13.122;2022-07-18T03:05:11;17.20;57.30
42227;DHT22;27892;52.378;13.122;2022-07-18T03:07:37;17.20;57.40
42227;DHT22;27892;52.378;13.122;2022-07-18T03:10:05;17.20;57.50
42227;DHT22;27892;52.378;13.122;2022-07-18T03:12:31;17.20;57.40
42227;DHT22;27892;52.378;13.122;2022-07-18T03:14:57;17.10;57.30
42227;DHT22;27892;52.378;13.122;2022-07-18T03:17:23;17.10;57.40
42227;DHT22;27892;52.378;13.122;2022-07-18T03:19:48;17.10;57.30
42227;DHT22;27892;52.378;13.122;2022-07-18T03:22:14;17.00;57.90
42227;DHT22;27892;52.378;13.122;2022-07-18T03:24:40;17.00;57.60
42227;DHT22;27892;52.378;13.122;2022-07-18T03:27:05;17.10;57.60
42227;DHT22;27892;52.378;13.122;2022-07-18T03:29:31;17.10;57.60
42227;DHT22;27892;52.378;13.122;2022-07-18T03:31:56;17.10;57.50
42227;DHT22;27892;52.378;13.122;2022-07-18T03:34:22;17.10;57.60
42227;DHT22;27892;52.378;13.122;2022-07-18T03:36:48;17.10;57.70
42227;DHT22;27892;52.378;13.122;2022-07-18T03:39:13;17.10;57.70
42227;DHT22;27892;52.378;13.122;2022-07-18T03:41:39;17.10;57.90
42227;DHT22;27892;52.378;13.122;2022-07-18T03:44:06;17.10;58.00
42227;DHT22;27892;52.378;13.122;2022-07-18T03:46:32;17.10;58.20
42227;DHT22;27892;52.378;13.122;2022-07-18T03:48:58;17.10;58.10
42227;DHT22;27892;52.378;13.122;2022-07-18T03:51:24;17.20;58.20
42227;DHT22;27892;52.378;13.122;2022-07-18T03:53:50;17.20;58.20
42227;DHT22;27892;52.378;13.122;2022-07-18T03:56:16;17.20;58.20
42227;DHT22;27892;52.378;13.122;2022-07-18T03:58:43;17.20;58.20
42227;DHT22;27892;52.378;13.122;2022-07-18T04:01:09;17.10;58.10
42227;DHT22;27892;52.378;13.122;2022-07-18T04:03:35;17.10;58.40
42227;DHT22;27892;52.378;13.122;2022-07-18T04:06:01;17.20;58.40
42227;DHT22;27892;52.378;13.122;2022-07-18T04:08:26;17.30;58.30
42227;DHT22;27892;52.378;13.122;2022-07-18T04:10:52;17.30;58.90
42227;DHT22;27892;52.378;13.122;2022-07-18T04:13:18;17.40;58.40
42227;DHT22;27892;52.378;13.122;2022-07-18T04:15:43;17.40;58.20
42227;DHT22;27892;52.378;13.122;2022-07-18T04:18:09;17.50;58.00
42227;DHT22;27892;52.378;13.122;2022-07-18T04:20:36;17.50;58.40
42227;DHT22;27892;52.378;13.122;2022-07-18T04:23:04;17.50;58.90
42227;DHT22;27892;52.378;13.122;2022-07-18T04:25:39;17.60;58.30
42227;DHT22;27892;52.378;13.122;2022-07-18T04:28:06;17.60;58.70
42227;DHT22;27892;52.378;13.122;2022-07-18T04:30:33;17.60;57.90
42227;DHT22;27892;52.378;13.122;2022-07-18T04:33:01;17.60;58.00
42227;DHT22;27892;52.378;13.122;2022-07-18T04:35:27;17.70;58.00
42227;DHT22;27892;52.378;13.122;2022-07-18T04:37:53;17.70;58.00
42227;DHT22;27892;52.378;13.122;2022-07-18T04:40:19;17.90;58.50
42227;DHT22;27892;52.378;13.122;2022-07-18T04:42:45;18.00;58.40
42227;DHT22;27892;52.378;13.122;2022-07-18T04:45:11;18.20;58.20
42227;DHT22;27892;52.378;13.122;2022-07-18T04:47:36;18.30;58.00
42227;DHT22;27892;52.378;13.122;2022-07-18T04:50:03;18.40;58.30
42227;DHT22;27892;52.378;13.122;2022-07-18T04:52:36;18.50;58.00
42227;DHT22;27892;52.378;13.122;2022-07-18T04:55:02;18.60;57.70
42227;DHT22;27892;52.378;13.122;2022-07-18T04:57:28;18.60;57.20
42227;DHT22;27892;52.378;13.122;2022-07-18T04:59:54;18.70;56.80
42227;DHT22;27892;52.378;13.122;2022-07-18T05:02:19;18.80;56.80
42227;DHT22;27892;52.378;13.122;2022-07-18T05:04:45;19.00;57.00
42227;DHT22;27892;52.378;13.122;2022-07-18T05:07:11;19.20;57.10
42227;DHT22;27892;52.378;13.122;2022-07-18T05:09:37;19.40;57.10
42227;DHT22;27892;52.378;13.122;2022-07-18T05:12:03;19.50;56.90
42227;DHT22;27892;52.378;13.122;2022-07-18T05:14:28;19.70;56.20
42227;DHT22;27892;52.378;13.122;2022-07-18T05:16:54;19.80;55.70
42227;DHT22;27892;52.378;13.122;2022-07-18T05:19:19;20.00;55.90
42227;DHT22;27892;52.378;13.122;2022-07-18T05:21:45;20.20;55.60
42227;DHT22;27892;52.378;13.122;2022-07-18T05:24:11;20.30;55.30
42227;DHT22;27892;52.378;13.122;2022-07-18T05:26:37;20.50;55.00
42227;DHT22;27892;52.378;13.122;2022-07-18T05:29:03;20.60;55.20
42227;DHT22;27892;52.378;13.122;2022-07-18T05:31:29;20.80;55.10
42227;DHT22;27892;52.378;13.122;2022-07-18T05:33:54;20.90;54.30
42227;DHT22;27892;52.378;13.122;2022-07-18T05:36:20;21.10;53.50
42227;DHT22;27892;52.378;13.122;2022-07-18T05:38:45;21.20;53.00
42227;DHT22;27892;52.378;13.122;2022-07-18T05:41:11;21.30;53.20
42227;DHT22;27892;52.378;13.122;2022-07-18T05:43:37;21.40;53.10
42227;DHT22;27892;52.378;13.122;2022-07-18T05:46:02;21.50;52.10
42227;DHT22;27892;52.378;13.122;2022-07-18T05:48:28;21.50;52.50
42227;DHT22;27892;52.378;13.122;2022-07-18T05:50:54;21.70;52.80
42227;DHT22;27892;52.378;13.122;2022-07-18T05:53:19;21.90;52.50
42227;DHT22;27892;52.378;13.122;2022-07-18T05:55:45;22.10;52.20
42227;DHT22;27892;52.378;13.122;2022-07-18T05:58:10;22.40;52.20
42227;DHT22;27892;52.378;13.122;2022-07-18T06:00:36;22.70;51.50
42227;DHT22;27892;52.378;13.122;2022-07-18T06:03:02;23.10;50.70
42227;DHT22;27892;52.378;13.122;2022-07-18T06:05:27;23.60;50.90
42227;DHT22;27892;52.378;13.122;2022-07-18T06:07:55;24.30;50.30
42227;DHT22;27892;52.378;13.122;2022-07-18T06:10:21;26.00;47.50
42227;DHT22;27892;52.378;13.122;2022-07-18T06:12:47;27.90;44.40
42227;DHT22;27892;52.378;13.122;2022-07-18T06:15:14;29.40;41.40
42227;DHT22;27892;52.378;13.122;2022-07-18T06:17:39;30.70;38.20
42227;DHT22;27892;52.378;13.122;2022-07-18T06:20:05;31.80;36.40
42227;DHT22;27892;52.378;13.122;2022-07-18T06:22:33;32.90;35.20
42227;DHT22;27892;52.378;13.122;2022-07-18T06:25:00;34.00;33.50
42227;DHT22;27892;52.378;13.122;2022-07-18T06:27:26;35.00;31.60
42227;DHT22;27892;52.378;13.122;2022-07-18T06:29:52;35.80;30.60
42227;DHT22;27892;52.378;13.122;2022-07-18T06:32:17;36.60;29.30
42227;DHT22;27892;52.378;13.122;2022-07-18T06:34:43;36.80;28.60
42227;DHT22;27892;52.378;13.122;2022-07-18T06:37:09;37.30;28.30
42227;DHT22;27892;52.378;13.122;2022-07-18T06:39:34;38.10;27.70
42227;DHT22;27892;52.378;13.122;2022-07-18T06:42:00;38.50;26.40
42227;DHT22;27892;52.378;13.122;2022-07-18T06:44:26;39.10;26.00
42227;DHT22;27892;52.378;13.122;2022-07-18T06:46:52;39.60;25.90
42227;DHT22;27892;52.378;13.122;2022-07-18T06:49:18;39.90;24.80
42227;DHT22;27892;52.378;13.122;2022-07-18T06:51:44;40.20;24.30
42227;DHT22;27892;52.378;13.122;2022-07-18T06:54:10;40.60;24.60
42227;DHT22;27892;52.378;13.122;2022-07-18T06:56:35;41.50;24.00
42227;DHT22;27892;52.378;13.122;2022-07-18T06:59:01;42.20;23.20
42227;DHT22;27892;52.378;13.122;2022-07-18T07:01:27;42.10;22.40
42227;DHT22;27892;52.378;13.122;2022-07-18T07:03:53;42.00;22.50
42227;DHT22;27892;52.378;13.122;2022-07-18T07:06:18;41.90;23.00
42227;DHT22;27892;52.378;13.122;2022-07-18T07:08:44;42.50;22.70
42227;DHT22;27892;52.378;13.122;2022-07-18T07:11:09;43.00;22.30
42227;DHT22;27892;52.378;13.122;2022-07-18T07:13:35;42.90;21.30
42227;DHT22;27892;52.378;13.122;2022-07-18T07:16:01;42.90;20.40
42227;DHT22;27892;52.378;13.122;2022-07-18T07:18:27;42.70;20.20
42227;DHT22;27892;52.378;13.122;2022-07-18T07:20:52;43.00;20.70
42227;DHT22;27892;52.378;13.122;2022-07-18T07:23:18;43.50;20.90
42227;DHT22;27892;52.378;13.122;2022-07-18T07:25:43;44.20;20.70
42227;DHT22;27892;52.378;13.122;2022-07-18T07:28:10;44.60;20.10
42227;DHT22;27892;52.378;13.122;2022-07-18T07:30:35;44.70;19.00
42227;DHT22;27892;52.378;13.122;2022-07-18T07:33:02;44.40;18.90
42227;DHT22;27892;52.378;13.122;2022-07-18T07:35:28;44.30;19.80
42227;DHT22;27892;52.378;13.122;2022-07-18T07:37:58;44.70;19.20
42227;DHT22;27892;52.378;13.122;2022-07-18T07:40:26;44.40;19.20
42227;DHT22;27892;52.378;13.122;2022-07-18T07:42:55;44.40;18.70
42227;DHT22;27892;52.378;13.122;2022-07-18T07:45:29;44.30;18.60
42227;DHT22;27892;52.378;13.122;2022-07-18T07:47:54;44.40;18.40
42227;DHT22;27892;52.378;13.122;2022-07-18T07:50:20;44.50;18.80
42227;DHT22;27892;52.378;13.122;2022-07-18T07:52:46;44.70;18.30
42227;DHT22;27892;52.378;13.122;2022-07-18T07:55:11;44.60;18.10
42227;DHT22;27892;52.378;13.122;2022-07-18T07:57:37;44.10;18.10
42227;DHT22;27892;52.378;13.122;2022-07-18T08:00:05;43.50;18.90
42227;DHT22;27892;52.378;13.122;2022-07-18T08:02:31;42.50;19.20
42227;DHT22;27892;52.378;13.122;2022-07-18T08:04:57;41.00;20.00
42227;DHT22;27892;52.378;13.122;2022-07-18T08:07:22;39.50;21.00
42227;DHT22;27892;52.378;13.122;2022-07-18T08:09:48;38.40;21.80
42227;DHT22;27892;52.378;13.122;2022-07-18T08:12:14;37.60;22.10
42227;DHT22;27892;52.378;13.122;2022-07-18T08:14:39;37.20;22.90
42227;DHT22;27892;52.378;13.122;2022-07-18T08:17:07;37.20;22.90
42227;DHT22;27892;52.378;13.122;2022-07-18T08:19:33;37.20;22.80
42227;DHT22;27892;52.378;13.122;2022-07-18T08:21:58;36.80;22.90
42227;DHT22;27892;52.378;13.122;2022-07-18T08:24:24;36.50;23.40
42227;DHT22;27892;52.378;13.122;2022-07-18T08:26:50;36.30;23.30
42227;DHT22;27892;52.378;13.122;2022-07-18T08:29:16;35.80;23.70
42227;DHT22;27892;52.378;13.122;2022-07-18T08:31:42;35.40;24.30
42227;DHT22;27892;52.378;13.122;2022-07-18T08:34:07;35.00;24.70
42227;DHT22;27892;52.378;13.122;2022-07-18T08:36:33;34.70;25.40
42227;DHT22;27892;52.378;13.122;2022-07-18T08:38:59;34.30;24.90
42227;DHT22;27892;52.378;13.122;2022-07-18T08:41:25;33.90;25.70
42227;DHT22;27892;52.378;13.122;2022-07-18T08:43:52;33.40;26.30
42227;DHT22;27892;52.378;13.122;2022-07-18T08:46:20;33.10;26.80
42227;DHT22;27892;52.378;13.122;2022-07-18T08:48:48;32.90;26.50
42227;DHT22;27892;52.378;13.122;2022-07-18T08:51:14;32.70;26.30
42227;DHT22;27892;52.378;13.122;2022-07-18T08:53:40;32.60;27.40
42227;DHT22;27892;52.378;13.122;2022-07-18T08:56:06;32.70;27.90
42227;DHT22;27892;52.378;13.122;2022-07-18T08:58:32;32.80;28.10
42227;DHT22;27892;52.378;13.122;2022-07-18T09:00:58;33.10;27.20
42227;DHT22;27892;52.378;13.122;2022-07-18T09:03:25;33.30;26.80
42227;DHT22;27892;52.378;13.122;2022-07-18T09:06:09;33.50;26.50
42227;DHT22;27892;52.378;13.122;2022-07-18T09:08:35;33.50;26.90
42227;DHT22;27892;52.378;13.122;2022-07-18T09:11:02;33.30;27.10
42227;DHT22;27892;52.378;13.122;2022-07-18T09:13:38;33.20;27.20
42227;DHT22;27892;52.378;13.122;2022-07-18T09:16:10;33.10;27.10
42227;DHT22;27892;52.378;13.122;2022-07-18T09:18:47;33.00;27.90
42227;DHT22;27892;52.378;13.122;2022-07-18T09:21:19;33.20;27.70
42227;DHT22;27892;52.378;13.122;2022-07-18T09:23:51;33.50;27.20
42227;DHT22;27892;52.378;13.122;2022-07-18T09:29:01;33.90;26.20
42227;DHT22;27892;52.378;13.122;2022-07-18T09:31:26;34.00;27.00
42227;DHT22;27892;52.378;13.122;2022-07-18T09:34:00;34.00;26.80
42227;DHT22;27892;52.378;13.122;2022-07-18T09:36:26;33.90;27.30
42227;DHT22;27892;52.378;13.122;2022-07-18T09:38:53;33.60;27.00
42227;DHT22;27892;52.378;13.122;2022-07-18T09:41:26;33.50;27.30
42227;DHT22;27892;52.378;13.122;2022-07-18T09:43:52;33.50;26.80
42227;DHT22;27892;52.378;13.122;2022-07-18T09:46:18;33.40;27.30
42227;DHT22;27892;52.378;13.122;2022-07-18T09:48:44;33.30;26.60
42227;DHT22;27892;52.378;13.122;2022-07-18T09:51:09;33.40;26.10
42227;DHT22;27892;52.378;13.122;2022-07-18T09:53:42;33.60;26.70
42227;DHT22;27892;52.378;13.122;2022-07-18T09:56:22;33.70;26.20
42227;DHT22;27892;52.378;13.122;2022-07-18T09:58:53;33.60;26.30
42227;DHT22;27892;52.378;13.122;2022-07-18T10:01:20;33.50;27.80
42227;DHT22;27892;52.378;13.122;2022-07-18T10:03:46;33.50;26.60
42227;DHT22;27892;52.378;13.122;2022-07-18T10:06:15;33.30;25.70
42227;DHT22;27892;52.378;13.122;2022-07-18T10:08:41;33.30;26.40
42227;DHT22;27892;52.378;13.122;2022-07-18T10:11:07;33.40;26.80
42227;DHT22;27892;52.378;13.122;2022-07-18T10:13:35;33.50;26.50
42227;DHT22;27892;52.378;13.122;2022-07-18T10:16:01;33.70;26.70
42227;DHT22;27892;52.378;13.122;2022-07-18T10:18:32;33.80;26.50
42227;DHT22;27892;52.378;13.122;2022-07-18T10:23:34;33.80;27.10
42227;DHT22;27892;52.378;13.122;2022-07-18T10:26:25;33.80;26.90
42227;DHT22;27892;52.378;13.122;2022-07-18T10:29:08;34.10;27.10
42227;DHT22;27892;52.378;13.122;2022-07-18T10:31:38;34.30;26.60
42227;DHT22;27892;52.378;13.122;2022-07-18T10:36:34;34.60;27.20
42227;DHT22;27892;52.378;13.122;2022-07-18T10:39:16;34.60;25.80
42227;DHT22;27892;52.378;13.122;2022-07-18T10:57:36;34.80;25.70
42227;DHT22;27892;52.378;13.122;2022-07-18T11:00:34;35.10;25.80
42227;DHT22;27892;52.378;13.122;2022-07-18T11:16:04;35.50;24.70
42227;DHT22;27892;52.378;13.122;2022-07-18T11:23:45;34.90;24.60
42227;DHT22;27892;52.378;13.122;2022-07-18T11:26:15;35.00;24.90
42227;DHT22;27892;52.378;13.122;2022-07-18T11:28:41;35.10;25.70
42227;DHT22;27892;52.378;13.122;2022-07-18T11:31:09;35.30;25.00
42227;DHT22;27892;52.378;13.122;2022-07-18T11:33:43;35.50;24.30
42227;DHT22;27892;52.378;13.122;2022-07-18T11:36:14;35.60;24.40
42227;DHT22;27892;52.378;13.122;2022-07-18T11:38:53;35.50;24.40
42227;DHT22;27892;52.378;13.122;2022-07-18T11:41:21;35.30;23.90
42227;DHT22;27892;52.378;13.122;2022-07-18T11:43:48;35.10;23.60
42227;DHT22;27892;52.378;13.122;2022-07-18T11:46:16;35.00;24.90
42227;DHT22;27892;52.378;13.122;2022-07-18T11:48:45;34.90;24.90
42227;DHT22;27892;52.378;13.122;2022-07-18T11:51:19;34.70;25.00
42227;DHT22;27892;52.378;13.122;2022-07-18T11:53:46;34.60;25.60
42227;DHT22;27892;52.378;13.122;2022-07-18T11:56:13;34.60;25.20
42227;DHT22;27892;52.378;13.122;2022-07-18T11:58:41;34.50;25.60
42227;DHT22;27892;52.378;13.122;2022-07-18T12:01:07;34.40;25.70
42227;DHT22;27892;52.378;13.122;2022-07-18T12:03:39;34.40;25.70
42227;DHT22;27892;52.378;13.122;2022-07-18T12:06:12;34.30;26.50
42227;DHT22;27892;52.378;13.122;2022-07-18T12:08:48;34.20;26.30
42227;DHT22;27892;52.378;13.122;2022-07-18T12:11:38;34.30;26.10
42227;DHT22;27892;52.378;13.122;2022-07-18T12:16:43;34.40;26.20
42227;DHT22;27892;52.378;13.122;2022-07-18T12:19:13;34.60;26.10
42227;DHT22;27892;52.378;13.122;2022-07-18T12:27:19;35.00;26.10
42227;DHT22;27892;52.378;13.122;2022-07-18T12:30:08;35.10;25.20
42227;DHT22;27892;52.378;13.122;2022-07-18T12:32:55;35.10;23.40
42227;DHT22;27892;52.378;13.122;2022-07-18T12:35:30;35.00;23.30
42227;DHT22;27892;52.378;13.122;2022-07-18T12:38:07;34.80;23.30
42227;DHT22;27892;52.378;13.122;2022-07-18T12:40:49;34.80;23.80
42227;DHT22;27892;52.378;13.122;2022-07-18T12:43:29;35.00;23.80
42227;DHT22;27892;52.378;13.122;2022-07-18T12:45:57;35.40;23.70
42227;DHT22;27892;52.378;13.122;2022-07-18T12:48:23;35.60;23.70
42227;DHT22;27892;52.378;13.122;2022-07-18T12:51:03;35.80;23.40
42227;DHT22;27892;52.378;13.122;2022-07-18T12:53:32;35.80;24.20
42227;DHT22;27892;52.378;13.122;2022-07-18T12:55:58;35.90;23.50
42227;DHT22;27892;52.378;13.122;2022-07-18T12:58:24;35.80;24.70
42227;DHT22;27892;52.378;13.122;2022-07-18T13:00:51;35.70;24.60
42227;DHT22;27892;52.378;13.122;2022-07-18T13:03:17;35.60;24.40
42227;DHT22;27892;52.378;13.122;2022-07-18T13:05:43;35.60;24.20
42227;DHT22;27892;52.378;13.122;2022-07-18T13:08:09;35.30;23.30
42227;DHT22;27892;52.378;13.122;2022-07-18T13:10:37;34.80;23.40
42227;DHT22;27892;52.378;13.122;2022-07-18T13:13:04;34.70;23.90
42227;DHT22;27892;52.378;13.122;2022-07-18T13:15:31;34.60;25.10
42227;DHT22;27892;52.378;13.122;2022-07-18T13:17:57;34.50;24.90
42227;DHT22;27892;52.378;13.122;2022-07-18T13:20:24;34.50;25.30
42227;DHT22;27892;52.378;13.122;2022-07-18T13:22:51;34.50;25.80
42227;DHT22;27892;52.378;13.122;2022-07-18T13:25:17;34.40;25.80
42227;DHT22;27892;52.378;13.122;2022-07-18T13:27:43;34.40;26.50
42227;DHT22;27892;52.378;13.122;2022-07-18T13:30:09;34.30;26.90
42227;DHT22;27892;52.378;13.122;2022-07-18T13:32:35;34.20;26.20
42227;DHT22;27892;52.378;13.122;2022-07-18T13:35:01;34.10;26.70
42227;DHT22;27892;52.378;13.122;2022-07-18T13:37:27;34.10;26.60
42227;DHT22;27892;52.378;13.122;2022-07-18T13:39:53;34.10;27.30
42227;DHT22;27892;52.378;13.122;2022-07-18T13:42:18;34.00;27.30
42227;DHT22;27892;52.378;13.122;2022-07-18T13:44:44;34.00;26.30
42227;DHT22;27892;52.378;13.122;2022-07-18T13:47:11;34.00;25.20
42227;DHT22;27892;52.378;13.122;2022-07-18T13:49:37;34.00;26.10
42227;DHT22;27892;52.378;13.122;2022-07-18T13:52:03;34.10;27.10
42227;DHT22;27892;52.378;13.122;2022-07-18T13:54:29;34.10;26.50
42227;DHT22;27892;52.378;13.122;2022-07-18T13:56:54;34.20;27.00
42227;DHT22;27892;52.378;13.122;2022-07-18T13:59:20;34.30;27.00
42227;DHT22;27892;52.378;13.122;2022-07-18T14:01:45;34.30;26.60
42227;DHT22;27892;52.378;13.122;2022-07-18T14:04:11;34.40;27.10
42227;DHT22;27892;52.378;13.122;2022-07-18T14:06:37;34.80;26.70
42227;DHT22;27892;52.378;13.122;2022-07-18T14:09:05;35.20;26.60
42227;DHT22;27892;52.378;13.122;2022-07-18T14:11:31;35.60;25.20
42227;DHT22;27892;52.378;13.122;2022-07-18T14:14:00;36.00;25.60
42227;DHT22;27892;52.378;13.122;2022-07-18T14:16:26;36.40;25.60
42227;DHT22;27892;52.378;13.122;2022-07-18T14:18:52;36.30;23.40
42227;DHT22;27892;52.378;13.122;2022-07-18T14:21:18;36.00;24.40
42227;DHT22;27892;52.378;13.122;2022-07-18T14:23:44;35.70;24.60
42227;DHT22;27892;52.378;13.122;2022-07-18T14:26:10;35.30;23.30
42227;DHT22;27892;52.378;13.122;2022-07-18T14:28:35;34.90;23.50
42227;DHT22;27892;52.378;13.122;2022-07-18T14:31:01;34.60;24.40
42227;DHT22;27892;52.378;13.122;2022-07-18T14:33:26;34.40;25.30
42227;DHT22;27892;52.378;13.122;2022-07-18T14:35:52;34.20;25.50
42227;DHT22;27892;52.378;13.122;2022-07-18T14:38:18;34.00;26.10
42227;DHT22;27892;52.378;13.122;2022-07-18T14:40:43;34.00;27.00
42227;DHT22;27892;52.378;13.122;2022-07-18T14:43:09;33.90;26.10
42227;DHT22;27892;52.378;13.122;2022-07-18T14:45:35;33.80;25.60
42227;DHT22;27892;52.378;13.122;2022-07-18T14:48:00;33.80;26.70
42227;DHT22;27892;52.378;13.122;2022-07-18T14:50:26;33.90;27.10
42227;DHT22;27892;52.378;13.122;2022-07-18T14:52:52;34.00;26.90
42227;DHT22;27892;52.378;13.122;2022-07-18T14:55:17;34.00;27.30
42227;DHT22;27892;52.378;13.122;2022-07-18T14:57:43;33.90;27.60
42227;DHT22;27892;52.378;13.122;2022-07-18T15:00:10;33.80;27.10
42227;DHT22;27892;52.378;13.122;2022-07-18T15:02:37;33.70;27.30
42227;DHT22;27892;52.378;13.122;2022-07-18T15:05:03;33.70;27.60
42227;DHT22;27892;52.378;13.122;2022-07-18T15:07:30;33.70;27.10
42227;DHT22;27892;52.378;13.122;2022-07-18T15:09:55;33.60;26.00
42227;DHT22;27892;52.378;13.122;2022-07-18T15:12:21;33.60;28.10
42227;DHT22;27892;52.378;13.122;2022-07-18T15:14:47;33.50;28.30
42227;DHT22;27892;52.378;13.122;2022-07-18T15:17:12;33.40;28.70
42227;DHT22;27892;52.378;13.122;2022-07-18T15:19:38;33.30;28.90
42227;DHT22;27892;52.378;13.122;2022-07-18T15:22:04;33.20;28.80
42227;DHT22;27892;52.378;13.122;2022-07-18T15:24:31;33.20;29.00
42227;DHT22;27892;52.378;13.122;2022-07-18T15:26:57;33.30;29.30
42227;DHT22;27892;52.378;13.122;2022-07-18T15:29:22;33.30;29.10
42227;DHT22;27892;52.378;13.122;2022-07-18T15:31:48;33.30;29.20
42227;DHT22;27892;52.378;13.122;2022-07-18T15:34:14;33.40;29.30
42227;DHT22;27892;52.378;13.122;2022-07-18T15:36:40;33.40;28.50
42227;DHT22;27892;52.378;13.122;2022-07-18T15:39:06;33.50;28.70
42227;DHT22;27892;52.378;13.122;2022-07-18T15:41:31;33.50;28.70
42227;DHT22;27892;52.378;13.122;2022-07-18T15:43:58;33.50;28.20
42227;DHT22;27892;52.378;13.122;2022-07-18T15:46:23;33.50;28.40
42227;DHT22;27892;52.378;13.122;2022-07-18T15:48:49;33.40;27.90
42227;DHT22;27892;52.378;13.122;2022-07-18T15:51:16;33.40;27.80
42227;DHT22;27892;52.378;13.122;2022-07-18T15:53:42;33.40;26.60
42227;DHT22;27892;52.378;13.122;2022-07-18T15:56:08;33.30;27.10
42227;DHT22;27892;52.378;13.122;2022-07-18T15:58:34;33.20;26.70
42227;DHT22;27892;52.378;13.122;2022-07-18T16:01:00;33.20;27.00
42227;DHT22;27892;52.378;13.122;2022-07-18T16:03:25;33.20;27.40
42227;DHT22;27892;52.378;13.122;2022-07-18T16:05:51;33.20;27.00